Topsail Beach, North Carolina
Current Conditions -  °F | °C
As of 7:56 PM on Tuesday 21 Oct 2014 (Local Time) from KNCA Reporting Station
Broken Clouds Broken Clouds  
Wind Chill: 19°   Ceiling: 7000
Heat Index: 19°   Visibility: 10mi
Dew Point: 15°   Wind: 5mph
Humidity: 78%   Direction: 220°SW
Pressure: 29.86"   Gusts: NA
Location:  34.4895°N, 77.514°W
Report Text: KNCA 212356Z AUTO 22004KT 10SM BKN070 19/15 A2986 RMK AO2 SLP114 T01890150 10250 20189 53012
Loading
Personal Weather Stations






























Interactive Weather Map
Tropical Storm Tracking
New forecast layout! Learn more

10-Day Weather Forecast

Advertisements
Track Severe Weather on mobile